Station: Mount Ginini

  Atmospheric Gas Attenuation - ITU Rec 676-11   --------------- db/100km ---------------
Date Time Temp RH % AH g/m3 Dew Point Wind Direction Speed kph Gust kph Barometer mB Rainfall Since 9am 24GHz 47GHz 76GHz 122GHz 134GHz 241GHz
23 09:00 0 99 4.8 -0.1 15 19 1013.1 0 12.0 23.5 30.4 79.2 61.6 207.5
23 08:50 0 99 4.8 -0.1 13 19 1013.1 0 12.0 23.5 30.4 79.2 61.6 207.5
23 08:40 -0.1 99 4.77 -0.2 17 24 1013.1 0 11.9 23.4 30.3 79.0 61.3 206.3
23 08:30 -0.2 99 4.74 -0.3 15 20 1013.1 0 11.8 23.4 30.2 78.8 60.9 205.2
23 08:20 -0.3 99 4.7 -0.4 13 20 1013.1 0 11.8 23.4 30.1 78.4 60.5 203.5
23 08:10 -0.3 99 4.7 -0.4 13 20 1013.1 0 11.8 23.4 30.1 78.4 60.5 203.5
23 08:00 -0.4 99 4.67 -0.5 17 24 1013.1 0 11.7 23.4 30.0 78.2 60.1 202.3
23 07:50 -0.4 99 4.67 -0.5 17 22 1013.1 0 11.7 23.4 30.0 78.2 60.1 202.3
23 07:40 -0.4 99 4.67 -0.5 15 22 1013.1 0 11.7 23.4 30.0 78.2 60.1 202.3
23 07:30 -0.5 99 4.64 -0.6 15 20 1013.1 0 11.6 23.3 29.9 78.0 59.8 201.2
23 07:20 -0.6 99 4.61 -0.7 15 20 1013.1 0 11.6 23.3 29.8 77.7 59.5 200.0
23 07:10 -0.6 99 4.61 -0.7 13 19 1013.1 0 11.6 23.3 29.8 77.7 59.5 200.0
23 07:00 -0.5 99 4.64 -0.6 13 19 1013.1 0 11.6 23.3 29.9 78.0 59.8 201.2
23 06:50 -0.5 99 4.64 -0.6 19 24 1013.1 0 11.6 23.3 29.9 78.0 59.8 201.2
23 06:40 -0.4 99 4.67 -0.5 19 24 1013.1 0 11.7 23.4 30.0 78.2 60.1 202.3
23 06:30 -0.5 99 4.64 -0.6 17 26 1013.1 0 11.6 23.3 29.9 78.0 59.8 201.2
23 06:20 -0.4 99 4.67 -0.5 17 20 1013.1 0 11.7 23.4 30.0 78.2 60.1 202.3
23 06:10 -0.4 99 4.67 -0.5 17 22 1013.1 0 11.7 23.4 30.0 78.2 60.1 202.3
23 06:00 -0.3 99 4.7 -0.4 19 24 1013.1 0 11.8 23.4 30.1 78.4 60.5 203.5
23 05:50 -0.3 99 4.7 -0.4 19 20 1013.1 0 11.8 23.4 30.1 78.4 60.5 203.5
23 05:40 -0.3 99 4.7 -0.4 17 22 1013.1 0 11.8 23.4 30.1 78.4 60.5 203.5
23 05:30 -0.3 99 4.7 -0.4 13 19 1013.1 0 11.8 23.4 30.1 78.4 60.5 203.5
23 05:20 -0.2 99 4.74 -0.3 17 19 1013.1 0 11.8 23.4 30.2 78.8 60.9 205.2
23 05:10 -0.1 99 4.77 -0.2 17 22 1013.1 0 11.9 23.4 30.3 79.0 61.3 206.3
23 05:00 -0.1 99 4.77 -0.2 17 26 1013.1 0 11.9 23.4 30.3 79.0 61.3 206.3
23 04:50 -0.1 99 4.77 -0.2 17 24 1013.1 0 11.9 23.4 30.3 79.0 61.3 206.3
23 04:40 0 99 4.8 -0.1 20 26 1013.1 0 12.0 23.5 30.4 79.2 61.6 207.5
23 04:30 0 99 4.8 -0.1 19 28 1013.1 0 12.0 23.5 30.4 79.2 61.6 207.5
23 04:20 0 99 4.8 -0.1 17 26 1013.1 0 12.0 23.5 30.4 79.2 61.6 207.5
23 04:10 0 99 4.8 -0.1 22 30 1013.1 0 12.0 23.5 30.4 79.2 61.6 207.5
23 04:00 0 99 4.8 -0.1 9 15 1013.1 0 12.0 23.5 30.4 79.2 61.6 207.5
23 03:50 0 99 4.8 -0.1 20 26 1013.1 0 12.0 23.5 30.4 79.2 61.6 207.5
23 03:40 -0.1 99 4.77 -0.2 19 24 1013.1 0 11.9 23.4 30.3 79.0 61.3 206.3
23 03:30 -0.2 99 4.74 -0.3 22 32 1013.1 0 11.8 23.4 30.2 78.8 60.9 205.2
23 03:20 -0.3 99 4.7 -0.4 22 30 1013.1 0 11.8 23.4 30.1 78.4 60.5 203.5
23 03:10 -0.3 98 4.66 -0.6 24 32 1013.1 0 11.7 23.3 29.9 78.0 59.9 201.6
23 03:00 -0.3 98 4.66 -0.6 22 28 1013.1 0 11.7 23.3 29.9 78.0 59.9 201.6
23 02:50 -0.2 98 4.69 -0.5 20 26 1013.1 0 11.7 23.3 30.0 78.2 60.2 202.8
23 02:40 0 98 4.75 -0.3 26 32 1013.1 0 11.9 23.4 30.2 78.7 60.9 205.1
23 02:30 0 98 4.75 -0.3 24 35 1013.1 0 11.9 23.4 30.2 78.7 60.9 205.1
23 02:20 0 96 4.66 -0.6 24 32 1013.1 0 11.7 23.2 29.8 77.7 59.7 200.8
23 02:10 0 95 4.61 -0.7 22 28 1013.1 0 11.6 23.2 29.6 77.1 59.0 198.5
23 02:00 0.1 94 4.59 -0.7 28 35 1013.1 0 11.5 23.1 29.5 76.8 58.7 197.2
23 01:50 0 94 4.56 -0.8 28 35 1013.1 0 11.4 23.1 29.4 76.6 58.3 196.1
23 01:40 0 94 4.56 -0.8 30 37 1013.1 0 11.4 23.1 29.4 76.6 58.3 196.1
23 01:30 -0.1 94 4.53 -0.9 26 33 1013.1 0 11.4 23.0 29.3 76.4 58.0 194.9
23 01:20 -0.2 95 4.55 -0.9 28 33 1013.1 0 11.4 23.1 29.4 76.7 58.3 196.1
23 01:10 -0.2 96 4.59 -0.8 26 37 1013.1 0 11.5 23.2 29.6 77.1 58.9 198.0
23 01:00 -0.3 97 4.61 -0.7 24 35 1013.1 0 11.6 23.2 29.7 77.4 59.2 199.2
23 00:50 -0.3 98 4.66 -0.6 30 41 1013.1 0 11.7 23.3 29.9 78.0 59.9 201.6
23 00:40 -0.4 98 4.63 -0.7 30 39 1013.1 0 11.6 23.3 29.8 77.8 59.6 200.4
23 00:30 -0.4 98 4.63 -0.7 30 35 1013.1 0 11.6 23.3 29.8 77.8 59.6 200.4
23 00:20 -0.3 99 4.7 -0.4 33 43 1013.1 0 11.8 23.4 30.1 78.4 60.5 203.5
23 00:10 -0.4 99 4.67 -0.5 22 33 1013.1 0 11.7 23.4 30.0 78.2 60.1 202.3
23 00:00 -0.5 99 4.64 -0.6 30 41 1013.1 0 11.6 23.3 29.9 78.0 59.8 201.2
22 23:50 -0.6 99 4.61 -0.7 26 37 1013.1 0 11.6 23.3 29.8 77.7 59.5 200.0
22 23:40 -0.6 99 4.61 -0.7 28 39 1013.1 0 11.6 23.3 29.8 77.7 59.5 200.0
22 23:30 -0.6 99 4.61 -0.7 28 35 1013.1 0 11.6 23.3 29.8 77.7 59.5 200.0
22 23:20 -0.6 99 4.61 -0.7 1013.1 0 11.6 23.3 29.8 77.7 59.5 200.0
22 23:10 -0.6 99 4.61 -0.7 26 33 1013.1 0 11.6 23.3 29.8 77.7 59.5 200.0
22 23:00 -0.6 99 4.61 -0.7 24 32 1013.1 0 11.6 23.3 29.8 77.7 59.5 200.0
22 22:50 -0.6 99 4.61 -0.7 26 33 1013.1 0 11.6 23.3 29.8 77.7 59.5 200.0
22 22:40 -0.6 99 4.61 -0.7 20 26 1013.1 0 11.6 23.3 29.8 77.7 59.5 200.0
22 22:30 -0.5 99 4.64 -0.6 24 33 1013.1 0 11.6 23.3 29.9 78.0 59.8 201.2
22 22:20 -0.5 99 4.64 -0.6 20 33 1013.1 0 11.6 23.3 29.9 78.0 59.8 201.2
22 22:10 -0.4 99 4.67 -0.5 20 32 1013.1 0 11.7 23.4 30.0 78.2 60.1 202.3
22 22:00 -0.4 99 4.67 -0.5 22 35 1013.1 0 11.7 23.4 30.0 78.2 60.1 202.3
22 21:50 -0.2 99 4.74 -0.3 24 33 1013.1 0 11.8 23.4 30.2 78.8 60.9 205.2
22 21:40 -0.1 99 4.77 -0.2 24 33 1013.1 0 11.9 23.4 30.3 79.0 61.3 206.3
22 21:30 -0.1 99 4.77 -0.2 24 30 1013.1 0 11.9 23.4 30.3 79.0 61.3 206.3
22 21:20 0 99 4.8 -0.1 30 41 1013.1 0 12.0 23.5 30.4 79.2 61.6 207.5
22 21:10 0 99 4.8 -0.1 24 35 1013.1 0 12.0 23.5 30.4 79.2 61.6 207.5
22 21:00 0 99 4.8 -0.1 22 33 1013.1 0 12.0 23.5 30.4 79.2 61.6 207.5
22 20:50 0 99 4.8 -0.1 22 30 1013.1 0 12.0 23.5 30.4 79.2 61.6 207.5
22 20:40 0.2 99 4.87 0.1 20 26 1013.1 0 12.1 23.5 30.6 79.8 62.4 210.3
22 20:30 0.3 99 4.9 0.2 22 33 1013.1 0 12.2 23.6 30.7 80.0 62.7 211.5
22 20:20 0.2 99 4.87 0.1 19 26 1013.1 0 12.1 23.5 30.6 79.8 62.4 210.3
22 20:10 0.2 99 4.87 0.1 24 39 1013.1 0 12.1 23.5 30.6 79.8 62.4 210.3
22 20:00 0.2 99 4.87 0.1 22 35 1013.1 0 12.1 23.5 30.6 79.8 62.4 210.3
22 19:50 0.3 99 4.9 0.2 22 30 1013.1 0 12.2 23.6 30.7 80.0 62.7 211.5
22 19:40 0.3 99 4.9 0.2 17 30 1013.1 0 12.2 23.6 30.7 80.0 62.7 211.5
22 19:30 0.3 99 4.9 0.2 26 43 1013.1 0 12.2 23.6 30.7 80.0 62.7 211.5
22 19:20 0.3 99 4.9 0.2 26 33 1013.1 0 12.2 23.6 30.7 80.0 62.7 211.5
22 19:10 0.5 99 4.97 0.4 24 32 1013.1 0 12.3 23.6 30.9 80.6 63.5 214.3
22 19:00 0.5 99 4.97 0.4 22 41 1013.1 0 12.3 23.6 30.9 80.6 63.5 214.3
22 18:50 0.6 99 5.01 0.5 1013.1 0 12.4 23.7 31.0 80.9 64.0 216.0
22 18:40 0.6 99 5.01 0.5 17 26 1013.1 0 12.4 23.7 31.0 80.9 64.0 216.0
22 18:30 0.6 99 5.01 0.5 15 30 1013.1 0 12.4 23.7 31.0 80.9 64.0 216.0
22 18:20 0.6 99 5.01 0.5 1013.1 0 12.4 23.7 31.0 80.9 64.0 216.0
22 18:10 0.6 99 5.01 0.5 15 22 1013.1 0 12.4 23.7 31.0 80.9 64.0 216.0
22 18:00 0.6 99 5.01 0.5 15 26 1013.1 0 12.4 23.7 31.0 80.9 64.0 216.0
22 17:50 0.5 99 4.97 0.4 17 22 1013.1 0 12.3 23.6 30.9 80.6 63.5 214.3
22 17:40 0.5 99 4.97 0.4 20 30 1013.1 0 12.3 23.6 30.9 80.6 63.5 214.3
22 17:30 0.5 99 4.97 0.4 19 24 1013.1 0 12.3 23.6 30.9 80.6 63.5 214.3
22 17:20 0.5 99 4.97 0.4 17 22 1013.1 0 12.3 23.6 30.9 80.6 63.5 214.3
22 17:10 0.5 99 4.97 0.4 20 32 1013.1 0 12.3 23.6 30.9 80.6 63.5 214.3
22 17:00 0.6 99 5.01 0.5 24 39 1013.1 0 12.4 23.7 31.0 80.9 64.0 216.0
22 16:50 0.7 99 5.04 0.6 24 35 1013.1 0 12.5 23.7 31.1 81.2 64.3 217.1
22 16:40 0.6 99 5.01 0.5 19 32 1013.1 0 12.4 23.7 31.0 80.9 64.0 216.0
22 16:30 0.6 99 5.01 0.5 24 32 1013.1 0 12.4 23.7 31.0 80.9 64.0 216.0

Last Refresh: 23-Jul-2024 08:43:40

Bureau of Meteorology